Ana Sayfa
METAR-TAF:

METAR-TAF

Havaalanları :

Vancouver, İngiliz Kolombiyası, Kanada

Enlem: 49-11N, Boylam: 123-10W, yükseklik: 3 m

Güncel hava durumu gözlemi

Rapor saat 22:00 UTC de 1 saat ve 2 dakika önce yapıldı.
Rüzgar batı/kuzeybatıdan 8 kt
Sıcaklık 13°C
Nem 82%
Basınç 1028 hPa
Görüş mesafesi: 48.3 km
24000 ft yükseklikte az bulutlu

METAR: CYVR 152200Z 29008KT 30SM FEW240 13/10 A3035 RMK CI2 SLP280

Saat: 16:02 (23:02 UTC)

Tahmin

Rapor saat 20:38 UTC de 2 saat ve 24 dakika önce yapıldı.
Ayın 15'si saat 21 UTC'den ayın 16'si saat 24 UTC'ye kadar geçerli Tahmin
Rüzgar batıdan 8 kt
Görüş mesafesi: 10 km
24000 ft yükseklikte parçalı bulutlu
Ayın 16'si saat 0800 UTC'den
Rüzgar değişken yönden 3 kt
Görüş mesafesi: 10 km
Açık gökyüzü
Dönüşüyor
ayın 16'si saat 18 UTC'den ayın 16'si saat 20 UTC'ye kadar
Rüzgar batıdan 8 kt

TAF: CYVR 152038Z 1521/1624 28008KT P6SM SCT240 FM160800 VRB03KT P6SM SKC BECMG 1618/1620 28008KT RMK NXT FCST BY 160000Z

4.000'den fazla havaalanı için hava durumu gözlemleri ve tahminleri (METAR ve TAF raporları).

Kullanılabilir istasyonlar harita üzerinde sarı ve kırmızı noktalarla gösterilir.

İstasyonun adını görmek için fareyi noktanın üzerinde gezdirin.

Sonrasında hava gözlem ve tahminlerini görmek için tıklayın.

Haritayı değiştirmek için: yaklaştırmak için siyah artı işaretli yeşil düğmeye ve uzaklaştırmak için de eksi işaretli düğmeye hızla tıklayın; bitişik haritalar için yeşil okları kullanın.


METAR-TAF: